createdAt,value
2019-04-10T00:00:35.505Z,98287.29
2019-04-10T00:03:04.147Z,98289.48
2019-04-10T00:05:33.960Z,98287.12
2019-04-10T00:08:02.313Z,98283.45
2019-04-10T00:10:30.567Z,98288.41
2019-04-10T00:12:58.841Z,98285.21
2019-04-10T00:15:27.101Z,98285.87
2019-04-10T00:17:55.677Z,98282.33
2019-04-10T00:20:24.874Z,98281.82
2019-04-10T00:22:53.125Z,98285.98
2019-04-10T00:25:21.413Z,98283.58
2019-04-10T00:27:50.607Z,98281.00
2019-04-10T00:30:20.742Z,98285.59
2019-04-10T00:32:49.686Z,98279.07
2019-04-10T00:35:19.268Z,98276.95
2019-04-10T00:37:49.156Z,98275.25
2019-04-10T00:40:17.760Z,98276.39
2019-04-10T00:42:46.012Z,98274.26
2019-04-10T00:45:15.223Z,98277.75
2019-04-10T00:47:44.006Z,98284.54
2019-04-10T00:50:12.623Z,98287.25
2019-04-10T00:52:41.486Z,98282.69
2019-04-10T00:55:09.762Z,98282.34
2019-04-10T00:57:38.015Z,98282.34
2019-04-10T01:00:06.861Z,98288.84
2019-04-10T01:02:35.118Z,98283.66
2019-04-10T01:05:03.734Z,98278.14
2019-04-10T01:07:38.077Z,98281.11
2019-04-10T01:10:02.159Z,98277.17
2019-04-10T01:12:31.930Z,98276.09
2019-04-10T01:15:00.456Z,98275.34
2019-04-10T01:17:28.710Z,98272.44
2019-04-10T01:19:58.491Z,98272.93
2019-04-10T01:22:27.490Z,98277.70
2019-04-10T01:24:55.849Z,98275.03
2019-04-10T01:27:24.101Z,98275.41
2019-04-10T01:29:52.383Z,98276.34
2019-04-10T01:32:20.636Z,98272.98
2019-04-10T01:34:49.696Z,98272.55
2019-04-10T01:37:18.754Z,98276.89
2019-04-10T01:39:47.174Z,98277.97
2019-04-10T01:42:16.496Z,98275.43
2019-04-10T01:44:44.925Z,98274.58
2019-04-10T01:47:13.141Z,98273.80
2019-04-10T01:49:42.191Z,98275.36
2019-04-10T01:52:10.884Z,98267.25
2019-04-10T01:54:43.030Z,98270.67
2019-04-10T01:57:10.298Z,98273.56
2019-04-10T01:59:40.352Z,98270.04
2019-04-10T02:02:10.682Z,98270.61
2019-04-10T02:04:39.606Z,98265.83
2019-04-10T02:07:09.653Z,98269.80
2019-04-10T02:09:39.283Z,98270.05
2019-04-10T02:12:07.556Z,98273.92
2019-04-10T02:14:36.598Z,98268.22
2019-04-10T02:17:04.851Z,98282.80
2019-04-10T02:19:34.399Z,98278.01
2019-04-10T02:22:02.727Z,98278.56
2019-04-10T02:24:31.348Z,98278.17
2019-04-10T02:27:00.260Z,98278.84
2019-04-10T02:29:28.608Z,98276.75
2019-04-10T02:31:57.473Z,98276.97
2019-04-10T02:34:25.924Z,98273.48
2019-04-10T02:36:55.265Z,98278.84
2019-04-10T02:39:32.491Z,98268.88
2019-04-10T02:41:54.471Z,98281.02
2019-04-10T02:44:26.104Z,98279.86
2019-04-10T02:46:54.933Z,98277.89
2019-04-10T02:49:22.625Z,98278.87
2019-04-10T02:51:51.971Z,98282.02
2019-04-10T02:54:21.315Z,98280.23
2019-04-10T02:56:49.766Z,98281.58
2019-04-10T02:59:18.790Z,98284.29
2019-04-10T03:01:47.461Z,98289.25
2019-04-10T03:04:16.513Z,98284.61
2019-04-10T03:06:45.376Z,98283.33
2019-04-10T03:09:28.848Z,98287.13
2019-04-10T03:11:45.720Z,98289.19
2019-04-10T03:14:14.770Z,98289.27
2019-04-10T03:16:43.782Z,98291.09
2019-04-10T03:19:12.089Z,98284.50
2019-04-10T03:21:40.367Z,98284.91
2019-04-10T03:24:09.538Z,98284.92
2019-04-10T03:26:38.070Z,98288.87
2019-04-10T03:29:07.262Z,98288.64
2019-04-10T03:31:36.931Z,98290.67
2019-04-10T03:34:22.352Z,98288.63
2019-04-10T03:36:49.855Z,98294.17
2019-04-10T03:39:18.674Z,98291.53
2019-04-10T03:41:48.466Z,98291.09
2019-04-10T03:44:16.858Z,98286.69
2019-04-10T03:46:45.138Z,98280.02
2019-04-10T03:49:13.684Z,98281.71
2019-04-10T03:51:43.008Z,98282.69
2019-04-10T03:54:13.059Z,98287.45
2019-04-10T03:56:42.352Z,98285.92
2019-04-10T03:59:11.679Z,98285.20
2019-04-10T04:01:40.940Z,98277.33
2019-04-10T04:04:09.270Z,98276.03
2019-04-10T04:06:38.435Z,98280.29
2019-04-10T04:09:10.873Z,98282.72
2019-04-10T04:11:37.748Z,98280.40
2019-04-10T04:14:06.246Z,98286.02
2019-04-10T04:16:35.268Z,98284.48
2019-04-10T04:19:03.911Z,98290.44
2019-04-10T04:21:32.466Z,98290.16
2019-04-10T04:24:01.496Z,98294.95
2019-04-10T04:26:29.989Z,98294.52
2019-04-10T04:28:58.246Z,98290.96
2019-04-10T04:31:27.066Z,98292.72
2019-04-10T04:33:55.657Z,98292.53
2019-04-10T04:36:24.590Z,98292.72
2019-04-10T04:38:53.313Z,98295.03
2019-04-10T04:41:21.687Z,98298.05
2019-04-10T04:43:50.717Z,98297.83
2019-04-10T04:46:18.996Z,98306.91
2019-04-10T04:48:47.470Z,98305.28
2019-04-10T04:51:15.874Z,98303.31
2019-04-10T04:53:45.091Z,98300.80
2019-04-10T04:56:13.353Z,98296.84
2019-04-10T04:58:41.618Z,98311.03
2019-04-10T05:01:11.237Z,98303.33
2019-04-10T05:03:39.493Z,98301.94
2019-04-10T05:06:08.045Z,98308.25
2019-04-10T05:08:37.853Z,98306.38
2019-04-10T05:11:06.539Z,98309.69
2019-04-10T05:13:34.931Z,98317.11
2019-04-10T05:16:03.183Z,98323.95
2019-04-10T05:18:31.742Z,98324.00
2019-04-10T05:21:00.980Z,98327.93
2019-04-10T05:23:30.909Z,98332.15
2019-04-10T05:26:00.293Z,98334.66
2019-04-10T05:28:29.938Z,98339.71
2019-04-10T05:30:58.955Z,98346.86
2019-04-10T05:33:27.301Z,98343.62
2019-04-10T05:35:57.014Z,98349.38
2019-04-10T05:38:25.397Z,98348.45
2019-04-10T05:40:53.642Z,98349.21
2019-04-10T05:43:24.030Z,98356.18
2019-04-10T05:45:53.017Z,98358.77
2019-04-10T05:48:23.494Z,98362.59
2019-04-10T05:50:56.461Z,98360.33
2019-04-10T05:53:22.542Z,98369.59
2019-04-10T05:55:51.655Z,98374.23
2019-04-10T05:58:20.034Z,98365.55
2019-04-10T06:00:49.806Z,98378.97
2019-04-10T06:03:18.620Z,98376.82
2019-04-10T06:05:48.639Z,98375.98
2019-04-10T06:08:17.925Z,98379.64
2019-04-10T06:10:47.832Z,98380.18
2019-04-10T06:13:17.172Z,98388.73
2019-04-10T06:15:45.496Z,98390.02
2019-04-10T06:18:15.303Z,98388.38
2019-04-10T06:20:45.159Z,98386.94
2019-04-10T06:23:13.551Z,98390.17
2019-04-10T06:25:43.356Z,98385.68
2019-04-10T06:28:12.950Z,98389.53
2019-04-10T06:30:41.855Z,98387.34
2019-04-10T06:33:10.209Z,98386.17
2019-04-10T06:35:39.864Z,98387.81
2019-04-10T06:38:08.266Z,98390.38
2019-04-10T06:40:37.568Z,98388.20
2019-04-10T06:43:06.594Z,98401.00
2019-04-10T06:45:35.746Z,98408.44
2019-04-10T06:48:04.854Z,98398.27
2019-04-10T06:50:33.105Z,98400.14
2019-04-10T06:53:01.389Z,98397.73
2019-04-10T06:59:10.497Z,98400.45
2019-04-10T07:01:45.585Z,98410.81
2019-04-10T07:04:09.972Z,98410.06
2019-04-10T07:06:49.931Z,98405.69
2019-04-10T07:09:10.201Z,98407.52
2019-04-10T07:11:38.859Z,98407.52
2019-04-10T07:14:10.220Z,98408.29
2019-04-10T07:16:37.389Z,98408.19
2019-04-10T07:19:09.841Z,98411.55
2019-04-10T07:21:37.099Z,98415.50
2019-04-10T07:24:08.333Z,98419.27
2019-04-10T07:26:40.678Z,98414.34
2019-04-10T07:29:05.775Z,98412.15
2019-04-10T07:31:36.378Z,98396.23
2019-04-10T07:34:06.685Z,98404.62
2019-04-10T07:36:34.986Z,98403.78
2019-04-10T07:39:05.452Z,98405.73
2019-04-10T07:41:33.773Z,98407.25
2019-04-10T07:44:02.093Z,98411.97
2019-04-10T07:46:31.209Z,98420.44
2019-04-10T07:49:00.698Z,98415.02
2019-04-10T07:51:29.811Z,98414.73
2019-04-10T07:53:58.198Z,98422.18
2019-04-10T07:56:26.755Z,98422.68
2019-04-10T07:58:55.979Z,98421.87
2019-04-10T08:01:25.120Z,98416.50
2019-04-10T08:03:54.018Z,98418.87
2019-04-10T08:06:23.507Z,98415.47
2019-04-10T08:08:51.840Z,98420.48
2019-04-10T08:11:20.092Z,98423.17
2019-04-10T08:13:49.187Z,98437.30
2019-04-10T08:16:17.610Z,98434.48
2019-04-10T08:18:47.735Z,98428.78
2019-04-10T08:21:16.099Z,98430.95
2019-04-10T08:23:44.617Z,98428.41
2019-04-10T08:26:14.290Z,98437.24
2019-04-10T08:28:43.311Z,98428.68
2019-04-10T08:31:12.694Z,98427.61
2019-04-10T08:33:42.011Z,98428.88
2019-04-10T08:36:11.140Z,98435.42
2019-04-10T08:38:40.119Z,98430.03
2019-04-10T08:41:08.740Z,98432.61
2019-04-10T08:43:39.553Z,98430.64
2019-04-10T08:46:08.736Z,98432.30
2019-04-10T08:48:36.998Z,98429.48
2019-04-10T08:51:06.477Z,98424.63
2019-04-10T08:53:36.109Z,98435.66
2019-04-10T08:56:04.564Z,98434.62
2019-04-10T08:58:32.860Z,98430.55
2019-04-10T09:01:01.127Z,98430.83
2019-04-10T09:03:30.831Z,98435.43
2019-04-10T09:06:00.851Z,98430.23
2019-04-10T09:08:29.756Z,98436.23
2019-04-10T09:10:58.859Z,98442.61
2019-04-10T09:13:28.571Z,98437.87
2019-04-10T09:15:56.868Z,98435.45
2019-04-10T09:18:25.276Z,98431.98
2019-04-10T09:20:53.500Z,98437.95
2019-04-10T09:23:30.747Z,98440.84
2019-04-10T09:25:52.641Z,98440.48
2019-04-10T09:28:22.286Z,98439.44
2019-04-10T09:30:51.325Z,98432.24
2019-04-10T09:33:24.629Z,98441.09
2019-04-10T09:35:50.917Z,98441.81
2019-04-10T09:38:19.300Z,98444.67
2019-04-10T09:40:48.726Z,98434.55
2019-04-10T09:43:17.896Z,98440.41
2019-04-10T09:45:47.962Z,98436.65
2019-04-10T09:48:16.572Z,98434.22
2019-04-10T09:50:45.922Z,98436.61
2019-04-10T09:53:15.057Z,98430.42
2019-04-10T09:55:43.471Z,98434.39
2019-04-10T09:58:11.761Z,98439.14
2019-04-10T10:00:40.271Z,98429.59
2019-04-10T10:03:09.497Z,98438.31
2019-04-10T10:05:39.055Z,98433.73
2019-04-10T10:08:08.055Z,98438.11
2019-04-10T10:10:38.373Z,98439.80
2019-04-10T10:13:07.547Z,98437.98
2019-04-10T10:15:35.768Z,98441.63
2019-04-10T10:18:05.197Z,98445.59
2019-04-10T10:20:33.753Z,98438.48
2019-04-10T10:23:02.033Z,98442.50
2019-04-10T10:25:31.207Z,98438.20
2019-04-10T10:27:59.661Z,98452.35
2019-04-10T10:30:27.922Z,98450.88
2019-04-10T10:32:57.225Z,98444.75
2019-04-10T10:35:25.544Z,98447.55
2019-04-10T10:37:54.721Z,98448.67
2019-04-10T10:40:23.432Z,98452.03
2019-04-10T10:42:51.968Z,98444.38
2019-04-10T10:45:20.796Z,98446.99
2019-04-10T10:47:50.645Z,98441.82
2019-04-10T10:50:19.279Z,98441.04
2019-04-10T10:52:48.001Z,98433.59
2019-04-10T10:55:16.381Z,98444.47
2019-04-10T10:57:44.636Z,98438.00
2019-04-10T11:00:13.378Z,98448.87
2019-04-10T11:02:41.652Z,98448.02
2019-04-10T11:05:10.739Z,98450.77
2019-04-10T11:07:40.429Z,98455.44
2019-04-10T11:10:08.757Z,98453.73
2019-04-10T11:12:38.473Z,98455.66
2019-04-10T11:15:07.802Z,98451.48
2019-04-10T11:17:36.247Z,98457.56
2019-04-10T11:20:10.060Z,98453.13
2019-04-10T11:22:39.739Z,98448.82
2019-04-10T11:25:08.425Z,98451.09
2019-04-10T11:27:36.707Z,98450.08
2019-04-10T11:30:08.257Z,98449.41
2019-04-10T11:32:37.845Z,98452.23
2019-04-10T11:35:07.658Z,98445.20
2019-04-10T11:37:43.519Z,98441.45
2019-04-10T11:40:06.935Z,98444.84
2019-04-10T11:42:37.160Z,98459.05
2019-04-10T11:45:08.019Z,98443.34
2019-04-10T11:47:36.531Z,98448.35
2019-04-10T11:50:09.518Z,98447.19
2019-04-10T11:52:42.522Z,98457.28
2019-04-10T11:55:12.693Z,98463.05
2019-04-10T11:57:37.376Z,98463.48
2019-04-10T12:00:12.085Z,98471.25
2019-04-10T12:02:39.420Z,98472.45
2019-04-10T12:08:06.065Z,98476.11
2019-04-10T12:12:37.615Z,98465.69
2019-04-10T12:15:08.009Z,98466.16
2019-04-10T12:17:36.082Z,98465.27
2019-04-10T12:20:06.962Z,98463.25
2019-04-10T12:22:35.863Z,98461.05
2019-04-10T12:25:05.354Z,98454.41
2019-04-10T12:27:33.637Z,98462.80
2019-04-10T12:30:09.570Z,98461.71
2019-04-10T12:32:38.893Z,98460.87
2019-04-10T12:35:07.277Z,98457.63
2019-04-10T12:37:35.628Z,98464.34
2019-04-10T12:40:05.693Z,98457.61
2019-04-10T12:42:34.550Z,98453.20
2019-04-10T12:45:04.710Z,98455.84
2019-04-10T12:47:32.893Z,98453.77
2019-04-10T12:50:01.149Z,98455.66
2019-04-10T12:52:30.280Z,98465.72
2019-04-10T12:54:59.578Z,98470.56
2019-04-10T12:57:28.618Z,98460.61
2019-04-10T13:00:01.381Z,98460.01
2019-04-10T13:02:28.110Z,98452.61
2019-04-10T13:04:56.590Z,98447.02
2019-04-10T13:07:25.014Z,98444.31
2019-04-10T13:09:54.041Z,98448.27
2019-04-10T13:12:23.020Z,98457.89
2019-04-10T13:14:51.350Z,98451.23
2019-04-10T13:17:20.435Z,98451.11
2019-04-10T13:19:49.307Z,98447.86
2019-04-10T13:22:17.999Z,98459.23
2019-04-10T13:24:46.328Z,98457.50
2019-04-10T13:27:14.882Z,98452.86
2019-04-10T13:29:43.133Z,98456.47
2019-04-10T13:32:11.735Z,98452.09
2019-04-10T13:34:41.721Z,98446.44
2019-04-10T13:37:10.261Z,98441.29
2019-04-10T13:39:39.944Z,98457.27
2019-04-10T13:42:09.196Z,98452.34
2019-04-10T13:44:38.374Z,98453.95
2019-04-10T13:47:07.163Z,98449.45
2019-04-10T13:49:35.725Z,98448.25
2019-04-10T13:52:04.116Z,98448.87
2019-04-10T13:54:32.586Z,98451.70
2019-04-10T13:57:01.512Z,98446.78
2019-04-10T13:59:31.068Z,98449.34
2019-04-10T14:02:00.544Z,98460.86
2019-04-10T14:04:29.232Z,98460.86
2019-04-10T14:06:57.823Z,98462.32
2019-04-10T14:09:36.859Z,98462.98
2019-04-10T14:11:57.358Z,98452.88
2019-04-10T14:14:26.733Z,98459.30
2019-04-10T14:16:57.684Z,98449.56
2019-04-10T14:19:27.814Z,98460.59
2019-04-10T14:21:56.128Z,98461.97
2019-04-10T14:24:26.211Z,98462.28
2019-04-10T14:27:05.803Z,98461.45
2019-04-10T14:29:34.443Z,98458.46
2019-04-10T14:32:05.068Z,98465.25
2019-04-10T14:34:34.591Z,98465.77
2019-04-10T14:37:03.306Z,98462.08
2019-04-10T14:39:31.659Z,98458.85
2019-04-10T14:42:00.136Z,98466.44
2019-04-10T14:44:28.593Z,98475.63
2019-04-10T14:46:57.841Z,98467.82
2019-04-10T14:49:27.233Z,98474.00
2019-04-10T14:51:56.717Z,98470.64
2019-04-10T14:54:26.008Z,98481.24
2019-04-10T14:56:54.884Z,98481.30
2019-04-10T14:59:24.599Z,98480.38
2019-04-10T15:01:52.848Z,98477.95
2019-04-10T15:04:21.381Z,98482.94
2019-04-10T15:06:50.220Z,98481.08
2019-04-10T15:09:25.608Z,98475.30
2019-04-10T15:11:51.093Z,98478.16
2019-04-10T15:14:19.467Z,98480.51
2019-04-10T15:16:55.667Z,98483.81
2019-04-10T15:19:18.486Z,98483.72
2019-04-10T15:21:47.166Z,98494.33
2019-04-10T15:24:15.839Z,98495.66
2019-04-10T15:26:44.576Z,98498.49
2019-04-10T15:29:12.944Z,98497.53
2019-04-10T15:31:42.308Z,98501.13
2019-04-10T15:34:10.585Z,98498.70
2019-04-10T15:36:40.173Z,98494.30
2019-04-10T15:39:08.735Z,98489.14
2019-04-10T15:41:37.130Z,98488.66
2019-04-10T15:44:05.803Z,98497.02
2019-04-10T15:46:35.259Z,98488.80
2019-04-10T15:49:03.679Z,98488.20
2019-04-10T15:51:32.171Z,98487.27
2019-04-10T15:54:01.288Z,98492.25
2019-04-10T15:56:29.904Z,98499.20
2019-04-10T15:58:58.279Z,98506.19
2019-04-10T16:01:28.504Z,98501.19
2019-04-10T16:03:56.303Z,98498.37
2019-04-10T16:06:25.096Z,98499.97
2019-04-10T16:08:54.630Z,98503.50
2019-04-10T16:11:27.956Z,98507.81
2019-04-10T16:13:59.037Z,98515.85
2019-04-10T16:16:36.827Z,98513.59
2019-04-10T16:19:06.816Z,98509.44
2019-04-10T16:21:36.015Z,98510.00
2019-04-10T16:24:06.698Z,98511.36
2019-04-10T16:26:35.719Z,98507.58
2019-04-10T16:29:04.748Z,98507.25
2019-04-10T16:31:33.693Z,98514.77
2019-04-10T16:34:01.943Z,98514.98
2019-04-10T16:36:30.213Z,98506.02
2019-04-10T16:38:58.466Z,98513.00
2019-04-10T16:41:29.553Z,98514.92
2019-04-10T16:43:57.490Z,98519.43
2019-04-10T16:46:25.753Z,98522.06
2019-04-10T16:48:54.008Z,98511.35
2019-04-10T16:51:23.987Z,98526.89
2019-04-10T16:53:52.373Z,98525.03
2019-04-10T16:56:21.210Z,98523.52
2019-04-10T16:58:49.937Z,98516.18
2019-04-10T17:01:18.318Z,98527.38
2019-04-10T17:03:46.540Z,98526.70
2019-04-10T17:06:15.377Z,98527.84
2019-04-10T17:08:44.395Z,98532.30
2019-04-10T17:11:12.712Z,98533.66
2019-04-10T17:13:40.917Z,98532.52
2019-04-10T17:16:10.313Z,98533.70
2019-04-10T17:18:39.277Z,98537.11
2019-04-10T17:21:08.997Z,98541.50
2019-04-10T17:23:37.472Z,98542.72
2019-04-10T17:26:06.598Z,98534.81
2019-04-10T17:28:34.954Z,98536.73
2019-04-10T17:31:04.477Z,98539.91
2019-04-10T17:33:34.092Z,98537.41
2019-04-10T17:36:02.378Z,98540.48
2019-04-10T17:38:31.020Z,98541.05
2019-04-10T17:41:01.212Z,98542.95
2019-04-10T17:43:29.928Z,98548.13
2019-04-10T17:45:59.028Z,98547.99
2019-04-10T17:48:28.279Z,98552.19
2019-04-10T17:50:57.520Z,98551.17
2019-04-10T17:53:26.142Z,98554.88
2019-04-10T17:55:54.434Z,98561.42
2019-04-10T17:58:23.356Z,98560.76
2019-04-10T18:00:53.761Z,98564.00
2019-04-10T18:03:23.340Z,98561.27
2019-04-10T18:05:52.983Z,98568.04
2019-04-10T18:08:24.185Z,98566.91
2019-04-10T18:10:54.075Z,98573.72
2019-04-10T18:13:22.431Z,98573.56
2019-04-10T18:15:50.801Z,98578.78
2019-04-10T18:18:19.856Z,98582.46
2019-04-10T18:20:49.604Z,98588.51
2019-04-10T18:23:19.557Z,98587.00
2019-04-10T18:25:50.461Z,98596.59
2019-04-10T18:28:21.356Z,98596.21
2019-04-10T18:30:52.354Z,98598.22
2019-04-10T18:33:20.540Z,98602.95
2019-04-10T18:35:51.091Z,98605.59
2019-04-10T18:38:19.574Z,98613.61
2019-04-10T18:40:58.035Z,98607.80
2019-04-10T18:43:18.201Z,98612.00
2019-04-10T18:45:57.500Z,98616.76
2019-04-10T18:48:16.660Z,98624.75
2019-04-10T18:50:45.495Z,98627.11
2019-04-10T18:53:15.005Z,98625.05
2019-04-10T18:55:43.432Z,98634.39
2019-04-10T18:58:31.677Z,98628.33
2019-04-10T19:01:18.917Z,98630.36
2019-04-10T19:03:56.850Z,98632.95
2019-04-10T19:06:24.727Z,98641.30
2019-04-10T19:09:04.787Z,98634.88
2019-04-10T19:11:26.468Z,98636.19
2019-04-10T19:13:53.146Z,98639.26
2019-04-10T19:16:22.153Z,98646.73
2019-04-10T19:18:50.394Z,98647.47
2019-04-10T19:21:19.586Z,98645.36
2019-04-10T19:23:47.893Z,98649.97
2019-04-10T19:26:18.914Z,98650.23
2019-04-10T19:28:47.337Z,98647.09
2019-04-10T19:31:23.829Z,98653.63
2019-04-10T19:33:51.156Z,98652.72
2019-04-10T19:36:19.524Z,98650.91
2019-04-10T19:38:47.758Z,98644.54
2019-04-10T19:41:25.133Z,98652.82
2019-04-10T19:43:46.403Z,98649.25
2019-04-10T19:46:15.378Z,98650.21
2019-04-10T19:48:43.900Z,98648.35
2019-04-10T19:51:12.199Z,98656.97
2019-04-10T19:53:41.548Z,98646.88
2019-04-10T19:56:10.885Z,98660.98
2019-04-10T19:58:39.373Z,98665.72
2019-04-10T20:01:08.674Z,98665.72
2019-04-10T20:03:37.573Z,98663.58
2019-04-10T20:06:06.091Z,98665.12
2019-04-10T20:08:35.619Z,98662.62
2019-04-10T20:11:03.990Z,98668.13
2019-04-10T20:13:32.609Z,98669.50
2019-04-10T20:16:02.674Z,98663.81
2019-04-10T20:18:32.602Z,98666.58
2019-04-10T20:21:02.140Z,98673.98
2019-04-10T20:23:31.964Z,98669.30
2019-04-10T20:26:01.026Z,98675.91
2019-04-10T20:28:29.557Z,98676.28
2019-04-10T20:30:58.029Z,98680.08
2019-04-10T20:33:27.555Z,98683.28
2019-04-10T20:35:58.445Z,98686.36
2019-04-10T20:38:27.345Z,98685.96
2019-04-10T20:40:56.148Z,98689.97
2019-04-10T20:43:24.383Z,98691.37
2019-04-10T20:45:53.717Z,98691.90
2019-04-10T20:48:22.463Z,98688.98
2019-04-10T20:50:52.265Z,98691.19
2019-04-10T20:53:22.124Z,98697.08
2019-04-10T20:55:51.361Z,98701.99
2019-04-10T20:58:21.787Z,98711.09
2019-04-10T21:00:51.324Z,98704.30
2019-04-10T21:03:19.737Z,98707.73
2019-04-10T21:05:48.645Z,98710.38
2019-04-10T21:08:18.050Z,98712.16
2019-04-10T21:10:47.638Z,98716.37
2019-04-10T21:13:16.975Z,98717.58
2019-04-10T21:15:46.296Z,98725.63
2019-04-10T21:18:15.339Z,98720.63
2019-04-10T21:20:43.705Z,98729.72
2019-04-10T21:23:13.065Z,98725.22
2019-04-10T21:25:41.968Z,98724.94
2019-04-10T21:28:10.317Z,98723.06
2019-04-10T21:30:49.403Z,98729.14
2019-04-10T21:33:22.615Z,98732.62
2019-04-10T21:35:51.952Z,98731.47
2019-04-10T21:38:21.376Z,98726.47
2019-04-10T21:40:49.799Z,98731.12
2019-04-10T21:43:18.523Z,98738.19
2019-04-10T21:45:48.204Z,98743.00
2019-04-10T21:48:17.245Z,98741.81
2019-04-10T21:50:46.044Z,98746.69
2019-04-10T21:53:14.367Z,98746.86
2019-04-10T21:55:43.708Z,98747.71
2019-04-10T21:58:13.087Z,98752.45
2019-04-10T22:01:01.570Z,98747.14
2019-04-10T22:03:29.943Z,98748.83
2019-04-10T22:05:59.998Z,98746.41
2019-04-10T22:08:46.271Z,98750.62
2019-04-10T22:11:14.885Z,98744.00
2019-04-10T22:13:44.225Z,98737.66
2019-04-10T22:16:14.609Z,98748.33
2019-04-10T22:18:42.472Z,98748.14
2019-04-10T22:21:11.049Z,98758.34
2019-04-10T22:23:40.352Z,98759.00
2019-04-10T22:26:09.556Z,98754.57
2019-04-10T22:28:37.866Z,98754.27
2019-04-10T22:31:06.112Z,98758.91
2019-04-10T22:33:36.348Z,98763.89
2019-04-10T22:36:04.590Z,98768.41
2019-04-10T22:38:33.497Z,98765.89
2019-04-10T22:41:02.492Z,98773.66
2019-04-10T22:43:32.120Z,98773.35
2019-04-10T22:46:00.512Z,98767.48
2019-04-10T22:48:28.801Z,98776.03
2019-04-10T22:50:57.079Z,98773.43
2019-04-10T22:53:25.573Z,98772.52
2019-04-10T22:55:54.162Z,98774.37
2019-04-10T22:58:22.982Z,98774.03
2019-04-10T23:00:51.257Z,98784.94
2019-04-10T23:03:20.304Z,98783.39
2019-04-10T23:05:49.396Z,98786.00
2019-04-10T23:08:17.907Z,98777.83
2019-04-10T23:10:46.177Z,98785.09
2019-04-10T23:13:14.430Z,98782.89
2019-04-10T23:15:43.892Z,98777.95
2019-04-10T23:18:13.099Z,98778.80
2019-04-10T23:20:43.837Z,98781.72
2019-04-10T23:23:12.108Z,98784.54
2019-04-10T23:25:40.949Z,98776.08
2019-04-10T23:28:09.586Z,98783.89
2019-04-10T23:30:37.821Z,98786.99
2019-04-10T23:33:06.108Z,98784.12
2019-04-10T23:35:34.349Z,98791.98
2019-04-10T23:38:03.625Z,98799.21
2019-04-10T23:40:32.772Z,98793.03
2019-04-10T23:43:08.038Z,98797.27
2019-04-10T23:45:31.429Z,98795.42
2019-04-10T23:48:00.624Z,98797.55
2019-04-10T23:50:28.902Z,98799.81
2019-04-10T23:52:58.341Z,98802.23
2019-04-10T23:55:28.125Z,98811.07
2019-04-10T23:57:56.401Z,98807.78
